sensor_id;sensor_type;location;lat;lon;timestamp;P1;durP1;ratioP1;P2;durP2;ratioP2
55617;SDS011;41492;49.804;9.952;2022-08-19T00:00:20;10.68;;;9.60;;
55617;SDS011;41492;49.804;9.952;2022-08-19T00:02:47;10.82;;;9.70;;
55617;SDS011;41492;49.804;9.952;2022-08-19T00:05:14;11.75;;;10.48;;
55617;SDS011;41492;49.804;9.952;2022-08-19T00:07:41;12.50;;;10.88;;
55617;SDS011;41492;49.804;9.952;2022-08-19T00:10:09;11.65;;;10.55;;
55617;SDS011;41492;49.804;9.952;2022-08-19T00:12:36;10.85;;;9.75;;
55617;SDS011;41492;49.804;9.952;2022-08-19T00:15:03;12.18;;;11.07;;
55617;SDS011;41492;49.804;9.952;2022-08-19T00:17:32;11.95;;;10.75;;
55617;SDS011;41492;49.804;9.952;2022-08-19T00:19:59;12.68;;;11.38;;
55617;SDS011;41492;49.804;9.952;2022-08-19T00:22:26;10.50;;;9.50;;
55617;SDS011;41492;49.804;9.952;2022-08-19T00:24:53;12.90;;;10.98;;
55617;SDS011;41492;49.804;9.952;2022-08-19T00:27:19;11.23;;;10.02;;
55617;SDS011;41492;49.804;9.952;2022-08-19T00:29:46;13.30;;;10.18;;
55617;SDS011;41492;49.804;9.952;2022-08-19T00:32:13;12.43;;;11.05;;
55617;SDS011;41492;49.804;9.952;2022-08-19T00:34:41;11.48;;;10.48;;
55617;SDS011;41492;49.804;9.952;2022-08-19T00:37:07;11.70;;;10.60;;
55617;SDS011;41492;49.804;9.952;2022-08-19T00:39:34;11.43;;;9.95;;
55617;SDS011;41492;49.804;9.952;2022-08-19T00:42:00;12.38;;;11.07;;
55617;SDS011;41492;49.804;9.952;2022-08-19T00:44:28;11.55;;;10.55;;
55617;SDS011;41492;49.804;9.952;2022-08-19T00:46:56;12.18;;;10.98;;
55617;SDS011;41492;49.804;9.952;2022-08-19T00:49:25;12.98;;;11.32;;
55617;SDS011;41492;49.804;9.952;2022-08-19T00:52:03;12.35;;;10.55;;
55617;SDS011;41492;49.804;9.952;2022-08-19T00:54:31;10.85;;;9.88;;
55617;SDS011;41492;49.804;9.952;2022-08-19T00:56:58;11.45;;;10.35;;
55617;SDS011;41492;49.804;9.952;2022-08-19T00:59:25;12.85;;;11.65;;
55617;SDS011;41492;49.804;9.952;2022-08-19T01:01:52;11.95;;;10.85;;
55617;SDS011;41492;49.804;9.952;2022-08-19T01:04:18;12.35;;;11.25;;
55617;SDS011;41492;49.804;9.952;2022-08-19T01:06:45;11.98;;;10.88;;
55617;SDS011;41492;49.804;9.952;2022-08-19T01:09:13;11.70;;;10.68;;
55617;SDS011;41492;49.804;9.952;2022-08-19T01:11:40;11.85;;;10.75;;
55617;SDS011;41492;49.804;9.952;2022-08-19T01:14:08;11.75;;;10.65;;
55617;SDS011;41492;49.804;9.952;2022-08-19T01:16:36;12.15;;;11.05;;
55617;SDS011;41492;49.804;9.952;2022-08-19T01:19:03;12.13;;;11.02;;
55617;SDS011;41492;49.804;9.952;2022-08-19T01:21:37;14.73;;;11.40;;
55617;SDS011;41492;49.804;9.952;2022-08-19T01:24:08;11.45;;;10.45;;
55617;SDS011;41492;49.804;9.952;2022-08-19T01:26:37;11.70;;;10.60;;
55617;SDS011;41492;49.804;9.952;2022-08-19T01:29:06;11.05;;;10.00;;
55617;SDS011;41492;49.804;9.952;2022-08-19T01:31:33;11.88;;;10.68;;
55617;SDS011;41492;49.804;9.952;2022-08-19T01:34:01;11.20;;;10.15;;
55617;SDS011;41492;49.804;9.952;2022-08-19T01:36:32;11.55;;;10.48;;
55617;SDS011;41492;49.804;9.952;2022-08-19T01:39:00;12.48;;;11.38;;
55617;SDS011;41492;49.804;9.952;2022-08-19T01:41:29;11.02;;;9.93;;
55617;SDS011;41492;49.804;9.952;2022-08-19T01:43:56;12.10;;;11.02;;
55617;SDS011;41492;49.804;9.952;2022-08-19T01:46:23;12.55;;;11.38;;
55617;SDS011;41492;49.804;9.952;2022-08-19T01:48:50;11.90;;;10.77;;
55617;SDS011;41492;49.804;9.952;2022-08-19T01:51:17;11.02;;;9.93;;
55617;SDS011;41492;49.804;9.952;2022-08-19T01:53:43;11.55;;;10.55;;
55617;SDS011;41492;49.804;9.952;2022-08-19T01:56:13;11.82;;;10.73;;
55617;SDS011;41492;49.804;9.952;2022-08-19T01:58:41;12.02;;;10.88;;
55617;SDS011;41492;49.804;9.952;2022-08-19T02:01:13;11.48;;;10.48;;
55617;SDS011;41492;49.804;9.952;2022-08-19T02:03:40;11.98;;;10.98;;
55617;SDS011;41492;49.804;9.952;2022-08-19T02:06:06;11.05;;;10.05;;
55617;SDS011;41492;49.804;9.952;2022-08-19T02:08:34;12.50;;;11.40;;
55617;SDS011;41492;49.804;9.952;2022-08-19T02:11:02;12.40;;;11.30;;
55617;SDS011;41492;49.804;9.952;2022-08-19T02:13:30;12.75;;;11.52;;
55617;SDS011;41492;49.804;9.952;2022-08-19T02:15:58;11.35;;;10.25;;
55617;SDS011;41492;49.804;9.952;2022-08-19T02:18:25;11.98;;;10.75;;
55617;SDS011;41492;49.804;9.952;2022-08-19T02:20:52;12.00;;;10.82;;
55617;SDS011;41492;49.804;9.952;2022-08-19T02:23:19;11.13;;;10.02;;
55617;SDS011;41492;49.804;9.952;2022-08-19T02:25:46;11.68;;;10.60;;
55617;SDS011;41492;49.804;9.952;2022-08-19T02:28:13;11.95;;;10.75;;
55617;SDS011;41492;49.804;9.952;2022-08-19T02:30:40;12.15;;;11.05;;
55617;SDS011;41492;49.804;9.952;2022-08-19T02:33:08;11.57;;;10.48;;
55617;SDS011;41492;49.804;9.952;2022-08-19T02:35:35;11.35;;;10.35;;
55617;SDS011;41492;49.804;9.952;2022-08-19T02:38:01;12.35;;;11.10;;
55617;SDS011;41492;49.804;9.952;2022-08-19T02:40:48;12.20;;;10.93;;
55617;SDS011;41492;49.804;9.952;2022-08-19T02:43:16;12.00;;;10.73;;
55617;SDS011;41492;49.804;9.952;2022-08-19T02:45:45;11.35;;;10.35;;
55617;SDS011;41492;49.804;9.952;2022-08-19T02:48:14;10.98;;;10.07;;
55617;SDS011;41492;49.804;9.952;2022-08-19T02:50:42;11.43;;;10.25;;
55617;SDS011;41492;49.804;9.952;2022-08-19T02:53:09;11.68;;;10.60;;
55617;SDS011;41492;49.804;9.952;2022-08-19T02:55:36;10.88;;;9.85;;
55617;SDS011;41492;49.804;9.952;2022-08-19T02:58:09;12.48;;;11.27;;
55617;SDS011;41492;49.804;9.952;2022-08-19T03:00:35;11.88;;;10.77;;
55617;SDS011;41492;49.804;9.952;2022-08-19T03:03:02;11.85;;;10.80;;
55617;SDS011;41492;49.804;9.952;2022-08-19T03:05:30;11.63;;;10.43;;
55617;SDS011;41492;49.804;9.952;2022-08-19T03:07:56;11.82;;;10.63;;
55617;SDS011;41492;49.804;9.952;2022-08-19T03:10:23;10.52;;;9.50;;
55617;SDS011;41492;49.804;9.952;2022-08-19T03:12:50;11.85;;;10.65;;
55617;SDS011;41492;49.804;9.952;2022-08-19T03:15:17;12.00;;;10.82;;
55617;SDS011;41492;49.804;9.952;2022-08-19T03:17:43;12.68;;;11.57;;
55617;SDS011;41492;49.804;9.952;2022-08-19T03:20:10;12.05;;;10.85;;
55617;SDS011;41492;49.804;9.952;2022-08-19T03:22:38;11.63;;;10.60;;
55617;SDS011;41492;49.804;9.952;2022-08-19T03:25:05;11.30;;;10.30;;
55617;SDS011;41492;49.804;9.952;2022-08-19T03:27:31;11.40;;;10.18;;
55617;SDS011;41492;49.804;9.952;2022-08-19T03:29:58;11.40;;;10.35;;
55617;SDS011;41492;49.804;9.952;2022-08-19T03:32:25;11.13;;;10.02;;
55617;SDS011;41492;49.804;9.952;2022-08-19T03:34:51;11.52;;;10.50;;
55617;SDS011;41492;49.804;9.952;2022-08-19T03:37:18;11.85;;;10.68;;
55617;SDS011;41492;49.804;9.952;2022-08-19T03:39:45;11.23;;;10.23;;
55617;SDS011;41492;49.804;9.952;2022-08-19T03:42:12;10.48;;;9.57;;
55617;SDS011;41492;49.804;9.952;2022-08-19T03:44:39;11.40;;;10.30;;
55617;SDS011;41492;49.804;9.952;2022-08-19T03:47:07;11.70;;;10.65;;
55617;SDS011;41492;49.804;9.952;2022-08-19T03:49:33;11.82;;;10.73;;
55617;SDS011;41492;49.804;9.952;2022-08-19T03:52:01;11.45;;;10.35;;
55617;SDS011;41492;49.804;9.952;2022-08-19T03:54:32;11.00;;;9.98;;
55617;SDS011;41492;49.804;9.952;2022-08-19T03:57:00;12.25;;;11.05;;
55617;SDS011;41492;49.804;9.952;2022-08-19T03:59:27;11.98;;;10.77;;
55617;SDS011;41492;49.804;9.952;2022-08-19T04:01:57;11.75;;;10.65;;
55617;SDS011;41492;49.804;9.952;2022-08-19T04:04:25;11.32;;;10.25;;
55617;SDS011;41492;49.804;9.952;2022-08-19T04:06:52;10.95;;;9.85;;
55617;SDS011;41492;49.804;9.952;2022-08-19T04:09:19;10.77;;;9.88;;
55617;SDS011;41492;49.804;9.952;2022-08-19T04:11:46;11.07;;;10.00;;
55617;SDS011;41492;49.804;9.952;2022-08-19T04:14:17;12.10;;;11.00;;
55617;SDS011;41492;49.804;9.952;2022-08-19T04:16:45;11.18;;;10.18;;
55617;SDS011;41492;49.804;9.952;2022-08-19T04:19:13;12.05;;;10.82;;
55617;SDS011;41492;49.804;9.952;2022-08-19T04:21:42;11.02;;;10.07;;
55617;SDS011;41492;49.804;9.952;2022-08-19T04:24:10;11.45;;;10.43;;
55617;SDS011;41492;49.804;9.952;2022-08-19T04:26:37;10.88;;;9.88;;
55617;SDS011;41492;49.804;9.952;2022-08-19T04:29:05;10.90;;;10.00;;
55617;SDS011;41492;49.804;9.952;2022-08-19T04:31:34;11.63;;;10.43;;
55617;SDS011;41492;49.804;9.952;2022-08-19T04:34:02;11.57;;;10.48;;
55617;SDS011;41492;49.804;9.952;2022-08-19T04:36:31;11.02;;;10.00;;
55617;SDS011;41492;49.804;9.952;2022-08-19T04:39:00;10.75;;;9.75;;
55617;SDS011;41492;49.804;9.952;2022-08-19T04:41:28;11.02;;;9.77;;
55617;SDS011;41492;49.804;9.952;2022-08-19T04:44:12;11.40;;;10.30;;
55617;SDS011;41492;49.804;9.952;2022-08-19T04:46:44;11.82;;;10.70;;
55617;SDS011;41492;49.804;9.952;2022-08-19T04:49:12;11.50;;;10.40;;
55617;SDS011;41492;49.804;9.952;2022-08-19T04:51:39;11.30;;;10.30;;
55617;SDS011;41492;49.804;9.952;2022-08-19T04:54:07;11.88;;;10.77;;
55617;SDS011;41492;49.804;9.952;2022-08-19T04:56:33;11.50;;;10.48;;
55617;SDS011;41492;49.804;9.952;2022-08-19T04:59:00;11.02;;;9.93;;
55617;SDS011;41492;49.804;9.952;2022-08-19T05:01:30;11.48;;;10.40;;
55617;SDS011;41492;49.804;9.952;2022-08-19T05:03:59;11.52;;;10.45;;
55617;SDS011;41492;49.804;9.952;2022-08-19T05:06:27;11.77;;;10.68;;
55617;SDS011;41492;49.804;9.952;2022-08-19T05:08:57;11.45;;;10.27;;
55617;SDS011;41492;49.804;9.952;2022-08-19T05:11:25;11.55;;;10.45;;
55617;SDS011;41492;49.804;9.952;2022-08-19T05:13:52;10.65;;;9.65;;
55617;SDS011;41492;49.804;9.952;2022-08-19T05:16:20;10.95;;;9.85;;
55617;SDS011;41492;49.804;9.952;2022-08-19T05:18:48;11.05;;;10.05;;
55617;SDS011;41492;49.804;9.952;2022-08-19T05:21:33;11.10;;;10.10;;
55617;SDS011;41492;49.804;9.952;2022-08-19T05:24:18;11.18;;;10.13;;
55617;SDS011;41492;49.804;9.952;2022-08-19T05:26:46;10.45;;;9.45;;
55617;SDS011;41492;49.804;9.952;2022-08-19T05:29:15;11.35;;;10.30;;
55617;SDS011;41492;49.804;9.952;2022-08-19T05:31:43;11.05;;;10.07;;
55617;SDS011;41492;49.804;9.952;2022-08-19T05:34:10;10.80;;;9.80;;
55617;SDS011;41492;49.804;9.952;2022-08-19T05:36:40;10.77;;;9.77;;
55617;SDS011;41492;49.804;9.952;2022-08-19T05:39:09;11.07;;;10.07;;
55617;SDS011;41492;49.804;9.952;2022-08-19T05:41:40;11.55;;;10.38;;
55617;SDS011;41492;49.804;9.952;2022-08-19T05:44:07;11.27;;;10.27;;
55617;SDS011;41492;49.804;9.952;2022-08-19T05:46:34;10.52;;;9.55;;
55617;SDS011;41492;49.804;9.952;2022-08-19T05:49:02;11.40;;;10.40;;
55617;SDS011;41492;49.804;9.952;2022-08-19T05:51:29;11.85;;;10.75;;
55617;SDS011;41492;49.804;9.952;2022-08-19T05:53:57;11.45;;;10.45;;
55617;SDS011;41492;49.804;9.952;2022-08-19T05:56:23;11.07;;;10.00;;
55617;SDS011;41492;49.804;9.952;2022-08-19T05:58:50;12.45;;;10.82;;
55617;SDS011;41492;49.804;9.952;2022-08-19T06:01:19;12.27;;;10.98;;
55617;SDS011;41492;49.804;9.952;2022-08-19T06:03:46;12.68;;;11.35;;
55617;SDS011;41492;49.804;9.952;2022-08-19T06:06:14;12.80;;;10.60;;
55617;SDS011;41492;49.804;9.952;2022-08-19T06:08:42;15.30;;;10.80;;
55617;SDS011;41492;49.804;9.952;2022-08-19T06:11:16;14.50;;;10.63;;
55617;SDS011;41492;49.804;9.952;2022-08-19T06:13:46;11.98;;;10.82;;
55617;SDS011;41492;49.804;9.952;2022-08-19T06:16:15;11.55;;;10.35;;
55617;SDS011;41492;49.804;9.952;2022-08-19T06:18:47;15.25;;;11.95;;
55617;SDS011;41492;49.804;9.952;2022-08-19T06:21:16;17.20;;;10.95;;
55617;SDS011;41492;49.804;9.952;2022-08-19T06:23:43;16.77;;;11.23;;
55617;SDS011;41492;49.804;9.952;2022-08-19T06:26:11;16.23;;;11.13;;
55617;SDS011;41492;49.804;9.952;2022-08-19T06:28:39;19.92;;;11.45;;
55617;SDS011;41492;49.804;9.952;2022-08-19T06:31:07;14.10;;;10.52;;
55617;SDS011;41492;49.804;9.952;2022-08-19T06:33:34;14.45;;;10.30;;
55617;SDS011;41492;49.804;9.952;2022-08-19T06:36:02;18.48;;;10.85;;
55617;SDS011;41492;49.804;9.952;2022-08-19T06:38:29;22.35;;;11.43;;
55617;SDS011;41492;49.804;9.952;2022-08-19T06:40:59;12.32;;;10.40;;
55617;SDS011;41492;49.804;9.952;2022-08-19T06:43:26;12.85;;;10.75;;
55617;SDS011;41492;49.804;9.952;2022-08-19T06:45:54;11.70;;;9.75;;
55617;SDS011;41492;49.804;9.952;2022-08-19T06:48:22;15.13;;;10.65;;
55617;SDS011;41492;49.804;9.952;2022-08-19T06:50:48;14.50;;;11.25;;
55617;SDS011;41492;49.804;9.952;2022-08-19T06:53:16;12.73;;;11.07;;
55617;SDS011;41492;49.804;9.952;2022-08-19T06:55:44;13.25;;;10.82;;
55617;SDS011;41492;49.804;9.952;2022-08-19T06:58:10;10.82;;;9.73;;
55617;SDS011;41492;49.804;9.952;2022-08-19T07:00:37;12.35;;;10.98;;
55617;SDS011;41492;49.804;9.952;2022-08-19T07:03:05;13.32;;;10.82;;
55617;SDS011;41492;49.804;9.952;2022-08-19T07:05:32;18.70;;;10.65;;
55617;SDS011;41492;49.804;9.952;2022-08-19T07:07:59;13.10;;;10.48;;
55617;SDS011;41492;49.804;9.952;2022-08-19T07:10:26;15.35;;;9.93;;
55617;SDS011;41492;49.804;9.952;2022-08-19T07:12:52;11.80;;;10.02;;
55617;SDS011;41492;49.804;9.952;2022-08-19T07:15:19;14.00;;;10.30;;
55617;SDS011;41492;49.804;9.952;2022-08-19T07:17:46;11.63;;;9.73;;
55617;SDS011;41492;49.804;9.952;2022-08-19T07:20:14;16.02;;;10.57;;
55617;SDS011;41492;49.804;9.952;2022-08-19T07:22:41;12.30;;;10.07;;
55617;SDS011;41492;49.804;9.952;2022-08-19T07:25:08;12.18;;;10.05;;
55617;SDS011;41492;49.804;9.952;2022-08-19T07:27:35;15.68;;;9.82;;
55617;SDS011;41492;49.804;9.952;2022-08-19T07:30:02;10.60;;;9.38;;
55617;SDS011;41492;49.804;9.952;2022-08-19T07:32:29;10.15;;;9.15;;
55617;SDS011;41492;49.804;9.952;2022-08-19T07:34:56;10.57;;;9.40;;
55617;SDS011;41492;49.804;9.952;2022-08-19T07:37:26;12.02;;;9.48;;
55617;SDS011;41492;49.804;9.952;2022-08-19T07:39:53;13.23;;;9.75;;
55617;SDS011;41492;49.804;9.952;2022-08-19T07:42:20;12.18;;;9.95;;
55617;SDS011;41492;49.804;9.952;2022-08-19T07:44:47;12.95;;;9.98;;
55617;SDS011;41492;49.804;9.952;2022-08-19T07:47:13;13.70;;;10.52;;
55617;SDS011;41492;49.804;9.952;2022-08-19T07:49:42;11.13;;;9.98;;
55617;SDS011;41492;49.804;9.952;2022-08-19T07:52:09;11.05;;;9.45;;
55617;SDS011;41492;49.804;9.952;2022-08-19T07:54:38;10.80;;;9.45;;
55617;SDS011;41492;49.804;9.952;2022-08-19T07:57:06;10.73;;;9.55;;
55617;SDS011;41492;49.804;9.952;2022-08-19T07:59:33;11.98;;;9.63;;
55617;SDS011;41492;49.804;9.952;2022-08-19T08:02:00;10.07;;;9.13;;
55617;SDS011;41492;49.804;9.952;2022-08-19T08:04:27;9.88;;;8.88;;
55617;SDS011;41492;49.804;9.952;2022-08-19T08:07:12;10.10;;;9.10;;
55617;SDS011;41492;49.804;9.952;2022-08-19T08:09:57;10.70;;;9.27;;
55617;SDS011;41492;49.804;9.952;2022-08-19T08:12:26;10.20;;;9.13;;
55617;SDS011;41492;49.804;9.952;2022-08-19T08:14:56;9.52;;;8.60;;
55617;SDS011;41492;49.804;9.952;2022-08-19T08:17:25;12.23;;;9.02;;
55617;SDS011;41492;49.804;9.952;2022-08-19T08:19:53;10.57;;;9.55;;
55617;SDS011;41492;49.804;9.952;2022-08-19T08:22:21;10.68;;;8.80;;
55617;SDS011;41492;49.804;9.952;2022-08-19T08:25:04;10.40;;;9.02;;
55617;SDS011;41492;49.804;9.952;2022-08-19T08:27:34;11.27;;;9.98;;
55617;SDS011;41492;49.804;9.952;2022-08-19T08:30:03;10.13;;;9.05;;
55617;SDS011;41492;49.804;9.952;2022-08-19T08:32:34;9.90;;;8.98;;
55617;SDS011;41492;49.804;9.952;2022-08-19T08:35:00;9.38;;;8.38;;
55617;SDS011;41492;49.804;9.952;2022-08-19T08:37:27;9.38;;;8.48;;
55617;SDS011;41492;49.804;9.952;2022-08-19T08:39:55;9.80;;;8.55;;
55617;SDS011;41492;49.804;9.952;2022-08-19T08:42:23;10.45;;;9.20;;
55617;SDS011;41492;49.804;9.952;2022-08-19T08:44:56;11.88;;;9.40;;
55617;SDS011;41492;49.804;9.952;2022-08-19T08:47:25;9.38;;;8.10;;
55617;SDS011;41492;49.804;9.952;2022-08-19T08:49:53;9.07;;;8.27;;
55617;SDS011;41492;49.804;9.952;2022-08-19T08:52:22;9.70;;;8.70;;
55617;SDS011;41492;49.804;9.952;2022-08-19T08:54:51;9.57;;;8.57;;
55617;SDS011;41492;49.804;9.952;2022-08-19T08:57:21;10.07;;;9.13;;
55617;SDS011;41492;49.804;9.952;2022-08-19T08:59:54;9.57;;;8.52;;
55617;SDS011;41492;49.804;9.952;2022-08-19T09:02:22;9.30;;;8.40;;
55617;SDS011;41492;49.804;9.952;2022-08-19T09:04:48;9.35;;;8.48;;
55617;SDS011;41492;49.804;9.952;2022-08-19T09:07:21;9.27;;;8.32;;
55617;SDS011;41492;49.804;9.952;2022-08-19T09:09:52;9.70;;;8.40;;
55617;SDS011;41492;49.804;9.952;2022-08-19T09:12:25;9.00;;;8.02;;
55617;SDS011;41492;49.804;9.952;2022-08-19T09:15:00;8.88;;;8.07;;
55617;SDS011;41492;49.804;9.952;2022-08-19T09:17:30;9.90;;;8.90;;
55617;SDS011;41492;49.804;9.952;2022-08-19T09:19:59;10.38;;;9.38;;
55617;SDS011;41492;49.804;9.952;2022-08-19T09:22:29;14.32;;;8.13;;
55617;SDS011;41492;49.804;9.952;2022-08-19T09:24:56;9.95;;;8.95;;
55617;SDS011;41492;49.804;9.952;2022-08-19T09:27:23;11.68;;;7.90;;
55617;SDS011;41492;49.804;9.952;2022-08-19T09:29:52;11.75;;;8.65;;
55617;SDS011;41492;49.804;9.952;2022-08-19T09:32:19;9.48;;;8.43;;
55617;SDS011;41492;49.804;9.952;2022-08-19T09:34:46;9.27;;;8.35;;
55617;SDS011;41492;49.804;9.952;2022-08-19T09:37:13;9.55;;;8.07;;
55617;SDS011;41492;49.804;9.952;2022-08-19T09:39:39;12.20;;;9.02;;
55617;SDS011;41492;49.804;9.952;2022-08-19T09:42:07;9.27;;;8.38;;
55617;SDS011;41492;49.804;9.952;2022-08-19T09:44:38;9.70;;;8.55;;
55617;SDS011;41492;49.804;9.952;2022-08-19T09:47:05;12.93;;;8.50;;
55617;SDS011;41492;49.804;9.952;2022-08-19T09:49:32;9.63;;;8.27;;
55617;SDS011;41492;49.804;9.952;2022-08-19T09:51:59;10.07;;;8.10;;
55617;SDS011;41492;49.804;9.952;2022-08-19T09:54:26;10.77;;;8.55;;
55617;SDS011;41492;49.804;9.952;2022-08-19T09:56:53;14.48;;;8.90;;
55617;SDS011;41492;49.804;9.952;2022-08-19T09:59:19;14.40;;;9.68;;
55617;SDS011;41492;49.804;9.952;2022-08-19T10:01:47;12.95;;;9.38;;
55617;SDS011;41492;49.804;9.952;2022-08-19T10:04:14;11.65;;;9.30;;
55617;SDS011;41492;49.804;9.952;2022-08-19T10:06:41;14.18;;;9.13;;
55617;SDS011;41492;49.804;9.952;2022-08-19T10:09:08;13.25;;;8.02;;
55617;SDS011;41492;49.804;9.952;2022-08-19T10:11:36;11.10;;;8.00;;
55617;SDS011;41492;49.804;9.952;2022-08-19T10:14:05;16.83;;;8.98;;
55617;SDS011;41492;49.804;9.952;2022-08-19T10:16:32;15.25;;;8.88;;
55617;SDS011;41492;49.804;9.952;2022-08-19T10:19:00;10.13;;;7.95;;
55617;SDS011;41492;49.804;9.952;2022-08-19T10:21:28;17.80;;;9.60;;
55617;SDS011;41492;49.804;9.952;2022-08-19T10:23:59;8.60;;;7.70;;
55617;SDS011;41492;49.804;9.952;2022-08-19T10:26:29;9.57;;;8.57;;
55617;SDS011;41492;49.804;9.952;2022-08-19T10:28:57;10.05;;;7.55;;
55617;SDS011;41492;49.804;9.952;2022-08-19T10:31:25;13.90;;;8.73;;
55617;SDS011;41492;49.804;9.952;2022-08-19T10:33:53;8.55;;;7.70;;
55617;SDS011;41492;49.804;9.952;2022-08-19T10:36:25;8.32;;;7.53;;
55617;SDS011;41492;49.804;9.952;2022-08-19T10:38:54;11.18;;;9.18;;
55617;SDS011;41492;49.804;9.952;2022-08-19T10:41:24;10.95;;;7.95;;
55617;SDS011;41492;49.804;9.952;2022-08-19T10:43:53;13.18;;;7.60;;
55617;SDS011;41492;49.804;9.952;2022-08-19T10:46:22;8.45;;;7.65;;
55617;SDS011;41492;49.804;9.952;2022-08-19T10:48:49;9.65;;;7.80;;
55617;SDS011;41492;49.804;9.952;2022-08-19T10:51:16;10.27;;;7.80;;
55617;SDS011;41492;49.804;9.952;2022-08-19T10:54:02;8.93;;;7.78;;
55617;SDS011;41492;49.804;9.952;2022-08-19T10:56:30;10.05;;;7.15;;
55617;SDS011;41492;49.804;9.952;2022-08-19T10:59:14;7.47;;;6.80;;
55617;SDS011;41492;49.804;9.952;2022-08-19T11:01:42;8.32;;;7.53;;
55617;SDS011;41492;49.804;9.952;2022-08-19T11:04:11;11.20;;;8.52;;
55617;SDS011;41492;49.804;9.952;2022-08-19T11:06:38;8.95;;;7.28;;
55617;SDS011;41492;49.804;9.952;2022-08-19T11:09:07;9.63;;;8.23;;
55617;SDS011;41492;49.804;9.952;2022-08-19T11:11:34;7.95;;;7.15;;
55617;SDS011;41492;49.804;9.952;2022-08-19T11:14:05;7.40;;;6.70;;
55617;SDS011;41492;49.804;9.952;2022-08-19T11:16:32;8.13;;;7.40;;
55617;SDS011;41492;49.804;9.952;2022-08-19T11:18:58;8.65;;;7.03;;
55617;SDS011;41492;49.804;9.952;2022-08-19T11:21:27;7.70;;;6.90;;
55617;SDS011;41492;49.804;9.952;2022-08-19T11:23:57;7.95;;;6.80;;
55617;SDS011;41492;49.804;9.952;2022-08-19T11:26:27;7.75;;;7.07;;
55617;SDS011;41492;49.804;9.952;2022-08-19T11:28:54;10.25;;;6.43;;
55617;SDS011;41492;49.804;9.952;2022-08-19T11:31:22;7.13;;;6.43;;
55617;SDS011;41492;49.804;9.952;2022-08-19T11:33:49;8.07;;;7.28;;
55617;SDS011;41492;49.804;9.952;2022-08-19T11:36:17;7.13;;;6.43;;
55617;SDS011;41492;49.804;9.952;2022-08-19T11:38:45;7.88;;;6.55;;
55617;SDS011;41492;49.804;9.952;2022-08-19T11:41:13;7.43;;;6.60;;
55617;SDS011;41492;49.804;9.952;2022-08-19T11:43:42;10.20;;;7.53;;
55617;SDS011;41492;49.804;9.952;2022-08-19T11:46:10;6.72;;;6.03;;
55617;SDS011;41492;49.804;9.952;2022-08-19T11:48:38;6.30;;;5.63;;
55617;SDS011;41492;49.804;9.952;2022-08-19T11:51:05;6.55;;;5.93;;
55617;SDS011;41492;49.804;9.952;2022-08-19T11:53:34;6.93;;;6.25;;
55617;SDS011;41492;49.804;9.952;2022-08-19T11:56:01;6.88;;;5.75;;
55617;SDS011;41492;49.804;9.952;2022-08-19T11:58:28;6.55;;;5.95;;
55617;SDS011;41492;49.804;9.952;2022-08-19T12:00:56;6.85;;;5.88;;
55617;SDS011;41492;49.804;9.952;2022-08-19T12:03:23;5.93;;;5.32;;
55617;SDS011;41492;49.804;9.952;2022-08-19T12:05:51;5.88;;;5.35;;
55617;SDS011;41492;49.804;9.952;2022-08-19T12:08:18;7.97;;;6.00;;
55617;SDS011;41492;49.804;9.952;2022-08-19T12:10:45;7.43;;;5.63;;
55617;SDS011;41492;49.804;9.952;2022-08-19T12:13:11;6.50;;;5.90;;
55617;SDS011;41492;49.804;9.952;2022-08-19T12:15:40;6.28;;;5.68;;
55617;SDS011;41492;49.804;9.952;2022-08-19T12:18:08;10.07;;;6.82;;
55617;SDS011;41492;49.804;9.952;2022-08-19T12:20:35;6.32;;;5.72;;
55617;SDS011;41492;49.804;9.952;2022-08-19T12:23:02;6.70;;;5.93;;
55617;SDS011;41492;49.804;9.952;2022-08-19T12:25:29;5.93;;;5.32;;
55617;SDS011;41492;49.804;9.952;2022-08-19T12:27:55;5.95;;;5.43;;
55617;SDS011;41492;49.804;9.952;2022-08-19T12:30:22;7.07;;;6.32;;
55617;SDS011;41492;49.804;9.952;2022-08-19T12:32:49;6.28;;;5.68;;
55617;SDS011;41492;49.804;9.952;2022-08-19T12:35:17;10.43;;;6.68;;
55617;SDS011;41492;49.804;9.952;2022-08-19T12:37:45;6.00;;;5.40;;
55617;SDS011;41492;49.804;9.952;2022-08-19T12:40:12;5.78;;;5.15;;
55617;SDS011;41492;49.804;9.952;2022-08-19T12:42:39;5.40;;;4.97;;
55617;SDS011;41492;49.804;9.952;2022-08-19T12:45:07;5.40;;;5.00;;
55617;SDS011;41492;49.804;9.952;2022-08-19T12:47:35;5.57;;;5.07;;
55617;SDS011;41492;49.804;9.952;2022-08-19T12:50:01;5.72;;;5.15;;
55617;SDS011;41492;49.804;9.952;2022-08-19T12:52:30;5.25;;;4.85;;
55617;SDS011;41492;49.804;9.952;2022-08-19T12:54:56;5.47;;;4.97;;
55617;SDS011;41492;49.804;9.952;2022-08-19T12:57:24;5.20;;;4.70;;
55617;SDS011;41492;49.804;9.952;2022-08-19T12:59:52;5.82;;;5.32;;
55617;SDS011;41492;49.804;9.952;2022-08-19T13:02:19;5.50;;;5.00;;
55617;SDS011;41492;49.804;9.952;2022-08-19T13:04:46;5.93;;;4.97;;
55617;SDS011;41492;49.804;9.952;2022-08-19T13:07:13;6.43;;;5.25;;
55617;SDS011;41492;49.804;9.952;2022-08-19T13:09:40;4.97;;;4.57;;
55617;SDS011;41492;49.804;9.952;2022-08-19T13:12:07;5.57;;;5.15;;
55617;SDS011;41492;49.804;9.952;2022-08-19T13:14:37;6.28;;;4.97;;
55617;SDS011;41492;49.804;9.952;2022-08-19T13:17:05;5.47;;;4.85;;
55617;SDS011;41492;49.804;9.952;2022-08-19T13:19:31;5.55;;;5.07;;
55617;SDS011;41492;49.804;9.952;2022-08-19T13:21:58;5.10;;;4.68;;
55617;SDS011;41492;49.804;9.952;2022-08-19T13:24:25;6.35;;;4.45;;
55617;SDS011;41492;49.804;9.952;2022-08-19T13:26:53;4.72;;;4.32;;
55617;SDS011;41492;49.804;9.952;2022-08-19T13:29:19;5.10;;;4.63;;
55617;SDS011;41492;49.804;9.952;2022-08-19T13:32:03;5.00;;;4.60;;
55617;SDS011;41492;49.804;9.952;2022-08-19T13:34:47;4.70;;;4.30;;
55617;SDS011;41492;49.804;9.952;2022-08-19T13:37:14;6.22;;;5.03;;
55617;SDS011;41492;49.804;9.952;2022-08-19T13:39:40;5.10;;;4.70;;
55617;SDS011;41492;49.804;9.952;2022-08-19T13:42:08;4.93;;;4.47;;
55617;SDS011;41492;49.804;9.952;2022-08-19T13:44:35;5.10;;;4.60;;
55617;SDS011;41492;49.804;9.952;2022-08-19T13:47:02;4.85;;;4.35;;
55617;SDS011;41492;49.804;9.952;2022-08-19T13:49:31;4.63;;;4.22;;
55617;SDS011;41492;49.804;9.952;2022-08-19T13:51:58;5.15;;;4.65;;
55617;SDS011;41492;49.804;9.952;2022-08-19T13:54:25;4.40;;;4.00;;
55617;SDS011;41492;49.804;9.952;2022-08-19T13:56:52;4.60;;;4.25;;
55617;SDS011;41492;49.804;9.952;2022-08-19T13:59:20;4.70;;;4.25;;
55617;SDS011;41492;49.804;9.952;2022-08-19T14:01:46;4.50;;;4.10;;
55617;SDS011;41492;49.804;9.952;2022-08-19T14:04:13;5.00;;;4.22;;
55617;SDS011;41492;49.804;9.952;2022-08-19T14:06:39;4.20;;;3.90;;
55617;SDS011;41492;49.804;9.952;2022-08-19T14:09:06;4.35;;;4.03;;
55617;SDS011;41492;49.804;9.952;2022-08-19T14:11:32;4.40;;;4.00;;
55617;SDS011;41492;49.804;9.952;2022-08-19T14:13:59;4.00;;;3.60;;
55617;SDS011;41492;49.804;9.952;2022-08-19T14:16:27;4.10;;;3.72;;
55617;SDS011;41492;49.804;9.952;2022-08-19T14:18:55;4.60;;;4.20;;
55617;SDS011;41492;49.804;9.952;2022-08-19T14:21:22;4.43;;;4.07;;
55617;SDS011;41492;49.804;9.952;2022-08-19T14:23:50;4.25;;;3.95;;
55617;SDS011;41492;49.804;9.952;2022-08-19T14:26:17;3.83;;;3.53;;
55617;SDS011;41492;49.804;9.952;2022-08-19T14:28:45;4.18;;;3.78;;
55617;SDS011;41492;49.804;9.952;2022-08-19T14:31:11;4.13;;;3.83;;
55617;SDS011;41492;49.804;9.952;2022-08-19T14:33:42;4.22;;;3.90;;
55617;SDS011;41492;49.804;9.952;2022-08-19T14:36:09;4.32;;;3.83;;
55617;SDS011;41492;49.804;9.952;2022-08-19T14:38:36;4.15;;;3.45;;